createdAt,value
2022-08-09T00:02:10.731Z,100104.84
2022-08-09T00:05:03.025Z,100109.88
2022-08-09T00:08:10.225Z,100107.72
2022-08-09T00:10:58.335Z,100109.31
2022-08-09T00:13:46.743Z,100101.38
2022-08-09T00:16:36.484Z,100103.50
2022-08-09T00:19:24.381Z,100098.50
2022-08-09T00:22:15.045Z,100106.97
2022-08-09T00:25:08.550Z,100100.91
2022-08-09T00:27:57.593Z,100100.13
2022-08-09T00:30:44.954Z,100099.84
2022-08-09T00:33:50.785Z,100093.47
2022-08-09T00:36:40.103Z,100095.63
2022-08-09T00:40:10.254Z,100094.03
2022-08-09T00:44:14.882Z,100095.94
2022-08-09T00:45:50.536Z,100088.53
2022-08-09T00:48:42.923Z,100095.19
2022-08-09T00:51:54.545Z,100089.66
2022-08-09T00:54:43.722Z,100076.16
2022-08-09T00:57:34.273Z,100094.09
2022-08-09T01:00:23.787Z,100079.56
2022-08-09T01:03:18.822Z,100094.09
2022-08-09T01:06:17.874Z,100100.66
2022-08-09T01:09:19.530Z,100091.94
2022-08-09T01:12:19.903Z,100101.75
2022-08-09T01:15:17.734Z,100097.22
2022-08-09T01:18:14.220Z,100094.56
2022-08-09T01:21:20.532Z,100097.22
2022-08-09T01:24:21.858Z,100098.81
2022-08-09T01:27:13.544Z,100095.91
2022-08-09T01:30:05.519Z,100101.41
2022-08-09T01:32:59.057Z,100106.16
2022-08-09T01:35:51.793Z,100107.16
2022-08-09T01:38:44.257Z,100102.13
2022-08-09T01:41:55.615Z,100107.63
2022-08-09T01:44:52.375Z,100107.63
2022-08-09T01:47:44.800Z,100103.94
2022-08-09T01:50:36.880Z,100103.66
2022-08-09T01:53:29.211Z,100102.06
2022-08-09T01:56:30.334Z,100096.78
2022-08-09T01:59:23.062Z,100101.78
2022-08-09T02:02:14.906Z,100108.66
2022-08-09T02:05:15.842Z,100100.22
2022-08-09T02:08:40.978Z,100096.78
2022-08-09T02:11:17.632Z,100099.69
2022-08-09T02:14:07.833Z,100107.63
2022-08-09T02:17:15.485Z,100099.22
2022-08-09T02:20:09.307Z,100115.63
2022-08-09T02:23:04.618Z,100110.34
2022-08-09T02:25:57.687Z,100114.63
2022-08-09T02:28:53.080Z,100113.28
2022-08-09T02:31:44.967Z,100120.47
2022-08-09T02:34:40.259Z,100127.09
2022-08-09T02:37:33.090Z,100118.09
2022-08-09T02:40:30.352Z,100126.31
2022-08-09T02:43:22.155Z,100120.81
2022-08-09T02:46:13.345Z,100122.16
2022-08-09T02:49:06.098Z,100130.63
2022-08-09T02:51:58.877Z,100126.44
2022-08-09T02:54:51.280Z,100130.19
2022-08-09T02:58:00.672Z,100116.75
2022-08-09T03:00:58.618Z,100119.94
2022-08-09T03:04:17.840Z,100123.34
2022-08-09T03:06:56.613Z,100116.50
2022-08-09T03:09:54.454Z,100122.28
2022-08-09T03:12:49.381Z,100117.56
2022-08-09T03:16:06.451Z,100116.47
2022-08-09T03:18:52.969Z,100124.94
2022-08-09T03:21:50.851Z,100116.47
2022-08-09T03:24:42.605Z,100115.38
2022-08-09T03:27:45.336Z,100110.91
2022-08-09T03:30:36.805Z,100118.53
2022-08-09T03:33:25.913Z,100118.03
2022-08-09T03:36:33.599Z,100113.56
2022-08-09T03:39:22.423Z,100132.59
2022-08-09T03:42:13.541Z,100127.03
2022-08-09T03:45:09.541Z,100131.75
2022-08-09T03:47:57.139Z,100128.34
2022-08-09T03:50:46.413Z,100132.81
2022-08-09T03:53:37.799Z,100134.13
2022-08-09T03:56:25.342Z,100142.31
2022-08-09T03:59:20.838Z,100144.97
2022-08-09T04:02:19.689Z,100145.56
2022-08-09T04:05:27.388Z,100154.00
2022-08-09T04:08:15.767Z,100150.34
2022-08-09T04:11:05.948Z,100150.88
2022-08-09T04:14:52.891Z,100154.31
2022-08-09T04:17:01.459Z,100155.91
2022-08-09T04:19:56.264Z,100157.25
2022-08-09T04:22:45.744Z,100160.97
2022-08-09T04:25:33.229Z,100161.44
2022-08-09T04:28:31.362Z,100161.50
2022-08-09T04:31:26.285Z,100163.59
2022-08-09T04:34:31.781Z,100165.19
2022-08-09T04:37:21.211Z,100175.25
2022-08-09T04:40:11.483Z,100176.88
2022-08-09T04:43:07.126Z,100185.84
2022-08-09T04:45:54.842Z,100183.72
2022-08-09T04:48:50.474Z,100186.38
2022-08-09T04:51:45.506Z,100193.75
2022-08-09T04:54:35.086Z,100186.63
2022-08-09T04:57:24.459Z,100193.75
2022-08-09T05:00:14.480Z,100198.00
2022-08-09T05:03:30.665Z,100199.03
2022-08-09T05:06:26.820Z,100202.75
2022-08-09T05:09:14.983Z,100199.81
2022-08-09T05:12:05.727Z,100200.06
2022-08-09T05:14:55.793Z,100210.91
2022-08-09T05:18:50.601Z,100209.03
2022-08-09T05:20:51.048Z,100212.47
2022-08-09T05:23:55.753Z,100216.44
2022-08-09T05:26:48.009Z,100216.44
2022-08-09T05:29:40.209Z,100210.06
2022-08-09T05:32:30.647Z,100214.31
2022-08-09T05:35:21.997Z,100219.06
2022-08-09T05:38:10.391Z,100221.44
2022-08-09T05:41:12.856Z,100231.75
2022-08-09T05:44:02.496Z,100218.25
2022-08-09T05:46:55.073Z,100231.72
2022-08-09T05:50:28.049Z,100224.28
2022-08-09T05:52:59.427Z,100231.16
2022-08-09T05:55:53.177Z,100235.09
2022-08-09T05:58:44.636Z,100247.75
2022-08-09T06:01:33.453Z,100242.97
2022-08-09T06:04:24.490Z,100236.84
2022-08-09T06:07:24.832Z,100250.03
2022-08-09T06:10:18.212Z,100250.03
2022-08-09T06:13:12.429Z,100248.91
2022-08-09T06:16:07.903Z,100242.78
2022-08-09T06:18:55.421Z,100249.34
2022-08-09T06:21:51.554Z,100250.66
2022-08-09T06:24:47.811Z,100249.84
2022-08-09T06:27:43.130Z,100256.09
2022-08-09T06:30:39.433Z,100252.88
2022-08-09T06:33:40.849Z,100251.47
2022-08-09T06:36:30.366Z,100254.59
2022-08-09T06:39:19.304Z,100255.84
2022-08-09T06:42:11.579Z,100257.13
2022-08-09T06:45:00.085Z,100264.75
2022-08-09T06:47:48.645Z,100263.66
2022-08-09T06:50:47.805Z,100253.78
2022-08-09T06:53:38.063Z,100263.75
2022-08-09T06:56:31.031Z,100260.00
2022-08-09T07:00:51.087Z,100263.91
2022-08-09T07:02:29.445Z,100268.56
2022-08-09T07:05:19.726Z,100267.16
2022-08-09T07:08:10.166Z,100268.41
2022-08-09T07:10:59.186Z,100264.34
2022-08-09T07:14:04.398Z,100266.69
2022-08-09T07:16:58.017Z,100273.22
2022-08-09T07:19:48.108Z,100276.03
2022-08-09T07:22:46.435Z,100274.88
2022-08-09T07:25:43.391Z,100277.41
2022-08-09T07:28:31.386Z,100277.84
2022-08-09T07:31:24.108Z,100280.94
2022-08-09T07:34:20.711Z,100282.44
2022-08-09T07:37:15.601Z,100286.34
2022-08-09T07:40:05.058Z,100280.09
2022-08-09T07:42:55.615Z,100278.38
2022-08-09T07:45:43.482Z,100290.44
2022-08-09T07:48:32.352Z,100285.75
2022-08-09T07:52:06.017Z,100288.25
2022-08-09T07:54:31.214Z,100283.09
2022-08-09T07:57:18.798Z,100289.03
2022-08-09T08:00:10.063Z,100279.78
2022-08-09T08:03:04.511Z,100281.97
2022-08-09T08:05:58.359Z,100295.59
2022-08-09T08:09:03.614Z,100280.59
2022-08-09T08:12:24.360Z,100275.06
2022-08-09T08:15:01.262Z,100284.44
2022-08-09T08:17:53.540Z,100269.84
2022-08-09T08:20:43.139Z,100280.28
2022-08-09T08:23:34.997Z,100281.66
2022-08-09T08:26:41.695Z,100281.47
2022-08-09T08:29:39.541Z,100286.28
2022-08-09T08:32:36.825Z,100287.16
2022-08-09T08:35:59.509Z,100279.72
2022-08-09T08:38:49.504Z,100279.19
2022-08-09T08:41:50.442Z,100280.28
2022-08-09T08:44:39.762Z,100288.03
2022-08-09T08:47:27.647Z,100280.31
2022-08-09T08:50:18.722Z,100282.22
2022-08-09T08:53:06.506Z,100287.00
2022-08-09T08:56:06.208Z,100289.66
2022-08-09T08:58:54.271Z,100278.72
2022-08-09T09:01:56.672Z,100286.44
2022-08-09T09:04:52.674Z,100283.69
2022-08-09T09:07:42.468Z,100291.13
2022-08-09T09:10:32.057Z,100282.41
2022-08-09T09:13:21.796Z,100285.88
2022-08-09T09:16:11.123Z,100292.81
2022-08-09T09:22:13.877Z,100285.66
2022-08-09T09:26:04.291Z,100281.75
2022-08-09T09:28:21.356Z,100287.91
2022-08-09T09:32:03.395Z,100283.69
2022-08-09T09:34:33.627Z,100283.69
2022-08-09T09:37:32.009Z,100277.13
2022-08-09T09:40:20.434Z,100298.31
2022-08-09T09:43:08.331Z,100285.59
2022-08-09T09:49:13.831Z,100286.69
2022-08-09T09:52:05.429Z,100282.78
2022-08-09T09:55:02.446Z,100285.81
2022-08-09T09:58:16.630Z,100276.66
2022-08-09T10:01:31.217Z,100269.91
2022-08-09T10:04:31.094Z,100275.25
2022-08-09T10:07:24.517Z,100270.56
2022-08-09T10:10:12.348Z,100273.69
2022-08-09T10:13:00.193Z,100286.41
2022-08-09T10:16:55.121Z,100278.22
2022-08-09T10:19:03.140Z,100262.19
2022-08-09T10:21:53.377Z,100268.63
2022-08-09T10:24:41.555Z,100265.34
2022-08-09T10:27:34.658Z,100271.63
2022-08-09T10:34:08.904Z,100260.28
2022-08-09T10:36:45.426Z,100261.22
2022-08-09T10:39:40.760Z,100263.75
2022-08-09T10:42:37.124Z,100258.22
2022-08-09T10:45:31.653Z,100255.69
2022-08-09T10:48:31.508Z,100250.81
2022-08-09T10:51:40.769Z,100259.63
2022-08-09T10:54:28.843Z,100261.81
2022-08-09T10:57:18.328Z,100250.03
2022-08-09T11:00:34.167Z,100260.72
2022-08-09T11:03:49.530Z,100248.91
2022-08-09T11:06:34.853Z,100240.28
2022-08-09T11:09:52.429Z,100243.75
2022-08-09T11:12:44.341Z,100259.81
2022-08-09T11:15:38.481Z,100264.38
2022-08-09T11:18:48.975Z,100268.59
2022-08-09T11:22:10.516Z,100251.44
2022-08-09T11:25:09.844Z,100253.47
2022-08-09T11:28:04.429Z,100257.13
2022-08-09T11:30:56.183Z,100253.31
2022-08-09T11:33:59.730Z,100250.03
2022-08-09T11:36:49.454Z,100251.09
2022-08-09T11:40:04.043Z,100249.53
2022-08-09T11:42:57.860Z,100254.88
2022-08-09T11:46:00.931Z,100244.81
2022-08-09T11:48:51.456Z,100238.72
2022-08-09T11:53:15.179Z,100242.63
2022-08-09T11:55:39.854Z,100238.38
2022-08-09T11:58:50.041Z,100237.59
2022-08-09T12:02:17.518Z,100237.28
2022-08-09T12:04:58.113Z,100238.72
2022-08-09T12:07:47.133Z,100236.34
2022-08-09T12:10:39.274Z,100237.59
2022-08-09T12:14:09.855Z,100233.47
2022-08-09T12:16:45.280Z,100230.38
2022-08-09T12:19:35.600Z,100228.78
2022-08-09T12:22:29.648Z,100222.97
2022-08-09T12:25:35.894Z,100223.41
2022-08-09T12:29:12.147Z,100226.09
2022-08-09T12:32:01.965Z,100223.41
2022-08-09T12:34:44.818Z,100225.00
2022-08-09T12:37:37.870Z,100223.41
2022-08-09T12:40:45.776Z,100217.31
2022-08-09T12:44:05.816Z,100218.72
2022-08-09T12:46:49.152Z,100225.97
2022-08-09T12:49:39.320Z,100222.81
2022-08-09T12:53:09.018Z,100217.78
2022-08-09T12:56:11.818Z,100215.09
2022-08-09T12:59:10.477Z,100214.00
2022-08-09T13:02:07.273Z,100201.41
2022-08-09T13:05:04.207Z,100207.88
2022-08-09T13:08:21.045Z,100204.56
2022-08-09T13:11:30.526Z,100193.06
2022-08-09T13:14:42.181Z,100196.06
2022-08-09T13:18:02.925Z,100184.91
2022-08-09T13:22:33.143Z,100187.25
2022-08-09T13:24:17.459Z,100181.25
2022-08-09T13:26:57.551Z,100175.91
2022-08-09T13:30:03.156Z,100186.78
2022-08-09T13:33:01.143Z,100178.78
2022-08-09T13:36:37.956Z,100180.34
2022-08-09T13:39:02.183Z,100180.66
2022-08-09T13:42:02.076Z,100177.22
2022-08-09T13:44:50.171Z,100186.28
2022-08-09T13:47:49.681Z,100177.03
2022-08-09T13:50:39.489Z,100173.88
2022-08-09T13:53:41.336Z,100170.13
2022-08-09T13:56:32.550Z,100171.34
2022-08-09T13:59:20.085Z,100159.53
2022-08-09T14:02:12.974Z,100163.16
2022-08-09T14:05:05.209Z,100166.00
2022-08-09T14:07:52.940Z,100157.66
2022-08-09T14:10:52.258Z,100158.78
2022-08-09T14:14:22.088Z,100164.56
2022-08-09T14:16:50.726Z,100146.31
2022-08-09T14:19:38.581Z,100150.09
2022-08-09T14:22:28.005Z,100148.84
2022-08-09T14:25:15.224Z,100152.94
2022-08-09T14:28:02.536Z,100150.59
2022-08-09T14:30:51.303Z,100142.56
2022-08-09T14:33:39.159Z,100157.06
2022-08-09T14:36:26.485Z,100152.47
2022-08-09T14:39:46.134Z,100148.22
2022-08-09T14:42:32.778Z,100131.41
2022-08-09T14:46:46.383Z,100139.88
2022-08-09T14:48:30.769Z,100134.22
2022-08-09T14:51:18.418Z,100132.78
2022-08-09T14:54:09.229Z,100131.69
2022-08-09T14:56:58.658Z,100135.78
2022-08-09T14:59:48.743Z,100136.41
2022-08-09T15:02:37.607Z,100124.63
2022-08-09T15:05:26.273Z,100127.44
2022-08-09T15:08:16.444Z,100116.41
2022-08-09T15:11:07.459Z,100123.34
2022-08-09T15:14:01.585Z,100124.13
2022-08-09T15:16:52.347Z,100112.19
2022-08-09T15:19:54.382Z,100124.91
2022-08-09T15:22:48.665Z,100121.75
2022-08-09T15:25:49.595Z,100119.09
2022-08-09T15:28:37.142Z,100119.56
2022-08-09T15:31:41.276Z,100125.34
2022-08-09T15:34:34.360Z,100124.28
2022-08-09T15:38:10.878Z,100115.94
2022-08-09T15:40:47.613Z,100107.44
2022-08-09T15:43:36.855Z,100118.28
2022-08-09T15:46:32.566Z,100115.28
2022-08-09T15:49:23.724Z,100110.69
2022-08-09T15:52:11.823Z,100112.28
2022-08-09T15:54:59.237Z,100102.66
2022-08-09T15:57:51.289Z,100106.94
2022-08-09T16:00:39.379Z,100108.03
2022-08-09T16:03:38.081Z,100108.34
2022-08-09T16:06:34.816Z,100097.53
2022-08-09T16:09:32.584Z,100101.28
2022-08-09T16:12:33.119Z,100094.38
2022-08-09T16:16:04.591Z,100103.19
2022-08-09T16:18:29.927Z,100107.75
2022-08-09T16:21:25.049Z,100103.50
2022-08-09T16:24:30.317Z,100105.72
2022-08-09T16:27:21.310Z,100104.16
2022-08-09T16:30:15.045Z,100104.16
2022-08-09T16:33:11.342Z,100102.28
2022-08-09T16:36:02.058Z,100104.16
2022-08-09T16:38:53.746Z,100109.03
2022-08-09T16:42:04.106Z,100101.00
2022-08-09T16:44:48.898Z,100099.44
2022-08-09T16:48:50.454Z,100094.09
2022-08-09T16:50:59.149Z,100097.88
2022-08-09T16:54:24.883Z,100095.53
2022-08-09T16:56:55.550Z,100091.63
2022-08-09T16:59:50.338Z,100098.03
2022-08-09T17:02:46.188Z,100102.13
2022-08-09T17:06:07.398Z,100094.75
2022-08-09T17:09:01.645Z,100090.34
2022-08-09T17:11:52.652Z,100095.25
2022-08-09T17:14:48.100Z,100093.34
2022-08-09T17:17:51.148Z,100095.72
2022-08-09T17:20:46.530Z,100095.72
2022-08-09T17:24:20.442Z,100095.72
2022-08-09T17:26:52.056Z,100107.19
2022-08-09T17:29:41.242Z,100108.00
2022-08-09T17:32:34.850Z,100102.66
2022-08-09T17:35:25.055Z,100114.09
2022-08-09T17:38:30.902Z,100093.03
2022-08-09T17:41:20.557Z,100105.97
2022-08-09T17:44:47.184Z,100102.81
2022-08-09T17:47:23.764Z,100098.09
2022-08-09T17:50:17.349Z,100106.13
2022-08-09T17:53:21.626Z,100106.44
2022-08-09T17:56:09.874Z,100107.75
2022-08-09T17:59:03.118Z,100112.94
2022-08-09T18:02:13.938Z,100112.00
2022-08-09T18:04:59.819Z,100116.13
2022-08-09T18:07:48.971Z,100122.22
2022-08-09T18:10:37.687Z,100120.34
2022-08-09T18:13:43.349Z,100115.31
2022-08-09T18:16:32.596Z,100123.19
2022-08-09T18:20:58.034Z,100121.31
2022-08-09T18:22:34.116Z,100121.31
2022-08-09T18:25:52.365Z,100123.97
2022-08-09T18:30:40.357Z,100120.84
2022-08-09T18:31:51.681Z,100121.00
2022-08-09T18:34:44.736Z,100117.84
2022-08-09T18:37:48.477Z,100121.66
2022-08-09T18:40:39.902Z,100129.22
2022-08-09T18:43:27.286Z,100119.88
2022-08-09T18:46:47.766Z,100126.66
2022-08-09T18:49:32.160Z,100123.53
2022-08-09T18:52:35.065Z,100124.19
2022-08-09T18:55:29.155Z,100123.22
2022-08-09T18:58:32.337Z,100129.22
2022-08-09T19:01:21.237Z,100148.88
2022-08-09T19:04:10.456Z,100148.25
2022-08-09T19:06:57.990Z,100151.06
2022-08-09T19:10:15.528Z,100146.97
2022-08-09T19:13:01.930Z,100156.28
2022-08-09T19:16:03.122Z,100153.28
2022-08-09T19:18:53.334Z,100158.75
2022-08-09T19:21:52.318Z,100160.00
2022-08-09T19:25:11.778Z,100154.34
2022-08-09T19:27:57.083Z,100155.59
2022-08-09T19:30:44.937Z,100154.66
2022-08-09T19:33:33.555Z,100162.81
2022-08-09T19:36:23.285Z,100167.22
2022-08-09T19:39:20.640Z,100169.56
2022-08-09T19:42:19.141Z,100171.56
2022-08-09T19:45:08.699Z,100167.19
2022-08-09T19:47:56.024Z,100168.38
2022-08-09T19:50:49.404Z,100172.78
2022-08-09T19:53:45.455Z,100170.25
2022-08-09T19:56:41.121Z,100169.28
2022-08-09T19:59:57.530Z,100171.31
2022-08-09T20:04:11.490Z,100181.34
2022-08-09T20:05:50.693Z,100184.75
2022-08-09T20:08:39.634Z,100183.34
2022-08-09T20:11:33.907Z,100186.91
2022-08-09T20:14:37.251Z,100177.25
2022-08-09T20:17:48.445Z,100185.91
2022-08-09T20:20:37.667Z,100194.31
2022-08-09T20:23:39.710Z,100184.56
2022-08-09T20:26:28.071Z,100178.59
2022-08-09T20:29:18.943Z,100182.16
2022-08-09T20:32:30.112Z,100182.00
2022-08-09T20:35:18.522Z,100186.19
2022-08-09T20:38:22.136Z,100190.53
2022-08-09T20:41:14.369Z,100187.53
2022-08-09T20:44:02.572Z,100194.56
2022-08-09T20:46:50.308Z,100201.06
2022-08-09T20:49:40.300Z,100203.06
2022-08-09T20:52:29.901Z,100199.72
2022-08-09T20:55:17.470Z,100204.09
2022-08-09T20:58:20.381Z,100205.75
2022-08-09T21:01:33.644Z,100199.00
2022-08-09T21:05:57.823Z,100204.72
2022-08-09T21:07:38.529Z,100206.72
2022-08-09T21:10:30.419Z,100205.09
2022-08-09T21:13:18.312Z,100211.88
2022-08-09T21:16:19.465Z,100208.69
2022-08-09T21:20:17.551Z,100206.16
2022-08-09T21:22:35.922Z,100211.09
2022-08-09T21:25:43.954Z,100211.81
2022-08-09T21:28:55.460Z,100206.59
2022-08-09T21:31:48.729Z,100211.72
2022-08-09T21:34:37.326Z,100210.13
2022-08-09T21:37:47.108Z,100211.03
2022-08-09T21:40:50.764Z,100208.97
2022-08-09T21:43:57.100Z,100213.28
2022-08-09T21:46:45.649Z,100214.69
2022-08-09T21:49:39.571Z,100217.94
2022-08-09T21:52:29.937Z,100212.44
2022-08-09T21:55:17.329Z,100214.88
2022-08-09T21:58:06.514Z,100216.22
2022-08-09T22:01:01.037Z,100225.09
2022-08-09T22:03:59.389Z,100211.63
2022-08-09T22:06:59.053Z,100223.13
2022-08-09T22:09:49.416Z,100226.94
2022-08-09T22:12:38.204Z,100219.84
2022-08-09T22:15:34.637Z,100217.78
2022-08-09T22:18:24.089Z,100214.13
2022-08-09T22:21:22.442Z,100217.69
2022-08-09T22:24:16.947Z,100214.84
2022-08-09T22:27:05.225Z,100215.41
2022-08-09T22:29:52.864Z,100216.28
2022-08-09T22:32:41.760Z,100227.59
2022-08-09T22:36:01.164Z,100221.91
2022-08-09T22:38:37.381Z,100233.22
2022-08-09T22:41:25.920Z,100222.38
2022-08-09T22:44:13.533Z,100222.38
2022-08-09T22:48:12.378Z,100226.91
2022-08-09T22:50:11.407Z,100224.25
2022-08-09T22:53:03.887Z,100214.09
2022-08-09T22:56:31.534Z,100231.63
2022-08-09T22:58:59.049Z,100225.53
2022-08-09T23:01:47.016Z,100218.84
2022-08-09T23:04:34.368Z,100225.44
2022-08-09T23:08:27.299Z,100217.47
2022-08-09T23:10:52.800Z,100217.47
2022-08-09T23:13:40.186Z,100216.41
2022-08-09T23:16:27.559Z,100213.75
2022-08-09T23:19:14.891Z,100207.34
2022-08-09T23:22:02.241Z,100208.16
2022-08-09T23:24:51.082Z,100214.22
2022-08-09T23:28:14.353Z,100210.00
2022-08-09T23:30:52.116Z,100210.00
2022-08-09T23:33:39.693Z,100208.91
2022-08-09T23:36:27.214Z,100206.78
2022-08-09T23:39:14.674Z,100198.81
2022-08-09T23:42:03.489Z,100212.09
2022-08-09T23:44:51.020Z,100206.78
2022-08-09T23:47:38.390Z,100209.44
2022-08-09T23:50:25.786Z,100204.88
2022-08-09T23:53:13.678Z,100203.53
2022-08-09T23:56:01.603Z,100207.19
2022-08-09T23:58:54.175Z,100201.31
